Time;durP1;ratioP1;P1;durP2;ratioP2;P2;SDS_P1;SDS_P2;PMS_P1;PMS_P2;Temp;Humidity;BMP_temperature;BMP_pressure;BME280_temperature;BME280_humidity;BME280_pressure;Samples;Min_cycle;Max_cycle;Signal;HPM_P1;HPM_P2
2022/01/15 00:02:58;;;;;;;;;13.60;12.00;;;;;8.65;49.83;99647.75;6088238;28;96846;-67
2022/01/15 00:06:01;;;;;;;;;15.40;14.00;;;;;8.65;49.98;99636.97;6072711;28;99592;-68
2022/01/15 00:09:05;;;;;;;;;10.60;10.60;;;;;8.46;50.25;99632.22;6073150;28;98149;-67
2022/01/15 00:12:10;;;;;;;;;14.40;12.00;;;;;8.49;50.23;99638.09;6089130;28;96446;-67
2022/01/15 00:15:21;;;;;;;;;15.00;13.00;;;;;8.51;50.38;99633.34;6088916;28;98498;-67
2022/01/15 00:18:39;;;;;;;;;18.00;15.25;;;;;8.50;50.35;99628.97;6090385;28;97434;-67
2022/01/15 00:21:43;;;;;;;;;15.60;14.60;;;;;8.39;50.51;99629.50;6088277;28;98416;-66
2022/01/15 00:24:47;;;;;;;;;14.60;14.60;;;;;8.44;50.45;99628.91;6086499;28;99476;-67
2022/01/15 00:27:51;;;;;;;;;17.50;16.25;;;;;8.43;50.44;99627.25;6088339;28;96969;-67
2022/01/15 00:30:56;;;;;;;;;17.00;15.00;;;;;8.20;50.25;99589.78;6086753;28;97132;-66
2022/01/15 00:33:59;;;;;;;;;16.50;14.00;;;;;8.33;50.46;99624.03;6088676;28;97578;-67
2022/01/15 00:37:03;;;;;;;;;15.00;14.40;;;;;8.31;50.56;99626.09;6071274;28;97580;-67
2022/01/15 00:40:09;;;;;;;;;18.20;14.60;;;;;8.27;50.55;99636.34;6079410;28;97702;-66
2022/01/15 00:43:12;;;;;;;;;17.60;14.00;;;;;8.12;50.69;99627.47;6089207;28;97907;-67
2022/01/15 00:46:17;;;;;;;;;17.60;16.60;;;;;8.20;50.48;99628.22;6093606;28;96637;-66
2022/01/15 00:49:20;;;;;;;;;17.60;15.60;;;;;8.16;50.51;99631.47;6093033;28;96980;-66
2022/01/15 00:52:24;;;;;;;;;16.60;14.60;;;;;8.14;50.38;99634.31;6093264;28;97437;-68
2022/01/15 00:55:29;;;;;;;;;15.00;14.20;;;;;8.12;50.62;99638.22;6092107;28;99936;-67
2022/01/15 00:58:32;;;;;;;;;14.60;13.60;;;;;7.84;50.32;99590.56;6093799;28;96933;-67
2022/01/15 01:01:37;;;;;;;;;16.00;14.75;;;;;7.94;50.82;99635.94;6093456;28;97226;-67
2022/01/15 01:04:41;;;;;;;;;16.00;14.80;;;;;7.81;51.00;99625.84;6093914;28;96603;-67
2022/01/15 01:07:45;;;;;;;;;15.75;13.00;;;;;7.82;50.98;99648.13;6093052;28;97573;-66
2022/01/15 01:10:54;;;;;;;;;16.00;14.00;;;;;7.84;50.84;99646.94;6094214;28;97549;-67
2022/01/15 01:20:56;;;;;;;;;14.00;13.40;;;;;7.89;50.55;99657.13;6092570;28;96992;-66
2022/01/15 01:24:00;;;;;;;;;17.40;14.40;;;;;7.89;50.57;99659.81;6092236;28;97407;-66
2022/01/15 01:27:08;;;;;;;;;15.60;14.60;;;;;7.84;50.58;99655.00;6093432;28;97873;-66
2022/01/15 01:30:17;;;;;;;;;13.00;12.00;;;;;7.65;51.26;99647.50;6093496;28;96737;-66
2022/01/15 01:33:36;;;;;;;;;14.00;14.00;;;;;7.65;51.42;99657.41;6093715;28;97508;-66
2022/01/15 01:36:47;;;;;;;;;15.60;15.00;;;;;7.63;51.53;99657.56;6092474;28;97027;-66
2022/01/15 01:39:54;;;;;;;;;15.00;13.40;;;;;7.63;51.50;99659.44;6077712;28;97953;-67
2022/01/15 01:43:05;;;;;;;;;19.00;17.00;;;;;7.57;51.50;99652.13;6087375;28;96857;-66
2022/01/15 01:46:17;;;;;;;;;15.60;14.00;;;;;7.75;51.36;99663.34;6092040;28;97507;-66
2022/01/15 01:49:23;;;;;;;;;17.00;15.60;;;;;7.78;51.32;99666.47;6093112;28;96430;-67
2022/01/15 01:52:27;;;;;;;;;19.00;17.00;;;;;7.82;51.30;99662.41;6093003;28;98158;-67
2022/01/15 01:55:30;;;;;;;;;20.50;15.50;;;;;7.90;51.02;99669.53;6098854;28;97006;-66
2022/01/15 01:58:34;;;;;;;;;16.40;15.00;;;;;7.93;51.02;99673.69;6082519;28;97619;-67
2022/01/15 02:01:38;;;;;;;;;18.00;16.00;;;;;7.96;50.77;99676.84;6068968;28;97077;-67
2022/01/15 02:04:43;;;;;;;;;20.00;16.00;;;;;8.09;50.49;99676.19;6073176;28;97173;-67
2022/01/15 02:07:47;;;;;;;;;18.00;16.40;;;;;7.95;50.62;99647.50;6084939;28;96633;-66
2022/01/15 02:10:51;;;;;;;;;19.60;16.60;;;;;8.18;50.38;99683.13;6070154;28;97525;-66
2022/01/15 02:13:54;;;;;;;;;19.00;17.75;;;;;8.19;50.37;99677.56;6069114;28;96569;-67
2022/01/15 02:16:59;;;;;;;;;17.00;15.80;;;;;8.07;50.53;99679.06;6086926;28;97351;-66
2022/01/15 02:20:36;;;;;;;;;18.40;17.00;;;;;8.11;50.51;99688.41;6102066;28;96575;-67
2022/01/15 02:23:44;;;;;;;;;20.60;18.60;;;;;8.18;50.37;99677.75;6089931;28;96884;-66
2022/01/15 02:26:47;;;;;;;;;18.60;16.60;;;;;8.18;50.32;99667.00;6087772;28;97429;-66
2022/01/15 02:29:50;;;;;;;;;18.00;14.75;;;;;8.03;50.21;99647.38;6066773;28;97800;-66
2022/01/15 02:32:53;;;;;;;;;23.60;18.00;;;;;8.19;50.23;99674.06;6085111;28;97514;-66
2022/01/15 02:35:58;;;;;;;;;18.00;16.75;;;;;8.16;50.04;99669.88;6057011;28;97019;-66
2022/01/15 02:39:03;;;;;;;;;20.00;16.60;;;;;8.17;50.08;99674.22;6066334;28;97929;-67
2022/01/15 02:42:07;;;;;;;;;20.00;18.25;;;;;8.17;50.05;99674.22;6089427;28;98023;-66
2022/01/15 02:45:12;;;;;;;;;18.75;17.00;;;;;8.11;50.16;99674.97;6075580;28;97297;-66
2022/01/15 02:48:17;;;;;;;;;19.40;16.00;;;;;8.12;49.94;99676.66;6091717;28;96554;-68
2022/01/15 02:51:24;;;;;;;;;19.00;17.00;;;;;8.13;49.96;99672.09;6091001;28;96501;-67
2022/01/15 02:54:27;;;;;;;;;22.00;19.00;;;;;8.10;50.09;99688.59;6090827;28;96494;-66
2022/01/15 02:57:31;;;;;;;;;17.00;17.00;;;;;8.12;50.00;99681.19;6073480;28;99598;-67
2022/01/15 03:00:35;;;;;;;;;20.00;17.40;;;;;8.02;50.16;99694.06;6092234;28;96478;-67
2022/01/15 03:03:39;;;;;;;;;19.60;17.00;;;;;7.80;50.19;99672.50;6091778;28;97216;-66
2022/01/15 03:06:43;;;;;;;;;18.60;18.00;;;;;7.82;50.39;99689.25;6091071;28;98163;-68
2022/01/15 03:09:47;;;;;;;;;13.60;13.00;;;;;7.91;50.32;99692.69;6091039;28;97972;-67
2022/01/15 03:12:51;;;;;;;;;18.00;15.00;;;;;7.94;50.00;99688.78;6089070;28;97369;-67
2022/01/15 03:15:54;;;;;;;;;15.20;13.80;;;;;7.90;49.69;99682.97;6092012;28;97118;-66
2022/01/15 03:18:58;;;;;;;;;18.60;16.60;;;;;7.82;50.11;99683.03;6073523;28;97568;-68
2022/01/15 03:22:04;;;;;;;;;18.25;16.00;;;;;7.81;49.96;99679.53;6091641;28;96602;-67
2022/01/15 03:25:08;;;;;;;;;18.00;16.00;;;;;7.68;49.98;99683.88;6091760;28;97063;-67
2022/01/15 03:28:12;;;;;;;;;21.00;17.00;;;;;7.75;49.97;99680.28;6073760;28;97910;-68
2022/01/15 03:31:15;;;;;;;;;19.00;17.00;;;;;7.69;50.00;99681.00;6090309;28;97172;-68
2022/01/15 03:34:18;;;;;;;;;16.80;14.80;;;;;7.60;50.08;99679.44;6091713;28;97342;-68
2022/01/15 03:37:23;;;;;;;;;15.00;14.00;;;;;7.48;50.47;99688.13;6089907;28;96457;-68
2022/01/15 03:40:27;;;;;;;;;20.80;18.20;;;;;7.32;50.76;99689.94;6089422;28;97091;-68
2022/01/15 03:43:30;;;;;;;;;21.50;18.50;;;;;7.27;50.93;99686.13;6090984;28;97167;-67
2022/01/15 03:46:34;;;;;;;;;19.00;16.00;;;;;7.06;51.40;99681.44;6067951;28;97333;-67
2022/01/15 03:49:38;;;;;;;;;20.80;18.60;;;;;7.01;51.36;99688.34;6090566;28;98109;-66
2022/01/15 03:52:43;;;;;;;;;17.00;16.00;;;;;7.05;51.29;99677.06;6091026;28;96763;-67
2022/01/15 03:55:46;;;;;;;;;19.00;17.00;;;;;7.00;51.37;99675.94;6090125;28;96916;-67
2022/01/15 03:58:49;;;;;;;;;16.50;14.50;;;;;6.85;51.24;99660.63;6090151;28;96778;-67
2022/01/15 04:01:53;;;;;;;;;17.40;16.00;;;;;6.99;51.21;99682.34;6086860;28;97415;-67
2022/01/15 04:04:57;;;;;;;;;19.00;16.00;;;;;6.91;51.38;99693.94;6071656;28;96799;-67
2022/01/15 04:08:02;;;;;;;;;15.60;15.00;;;;;6.84;51.53;99690.31;6088381;28;97684;-67
2022/01/15 04:11:05;;;;;;;;;18.00;15.00;;;;;6.84;51.71;99693.81;6086512;28;97109;-66
2022/01/15 04:14:08;;;;;;;;;16.00;14.00;;;;;6.74;51.78;99690.56;6088478;28;97398;-67
2022/01/15 04:17:12;;;;;;;;;16.00;15.00;;;;;6.83;51.71;99705.56;6071574;28;96921;-68
2022/01/15 04:20:18;;;;;;;;;18.00;15.75;;;;;6.93;51.81;99700.81;6071836;28;99978;-66
2022/01/15 04:23:23;;;;;;;;;18.00;16.00;;;;;6.78;52.07;99693.69;6089929;28;96722;-66
2022/01/15 04:26:27;;;;;;;;;18.00;17.00;;;;;6.82;51.85;99689.66;6072665;28;97781;-66
2022/01/15 04:29:33;;;;;;;;;15.40;14.20;;;;;6.67;52.13;99688.75;6089580;28;97402;-66
2022/01/15 04:32:36;;;;;;;;;15.00;14.00;;;;;6.42;51.89;99659.44;6064908;28;97668;-66
2022/01/15 04:35:40;;;;;;;;;17.60;16.00;;;;;6.75;51.81;99691.34;6081183;28;96609;-67
2022/01/15 04:38:45;;;;;;;;;16.25;16.00;;;;;6.80;51.62;99686.31;6081425;28;97425;-68
2022/01/15 04:41:48;;;;;;;;;15.00;13.60;;;;;6.85;51.62;99697.31;6088801;28;97525;-68
2022/01/15 04:44:52;;;;;;;;;16.00;14.00;;;;;6.91;51.49;99716.22;6076844;28;97503;-68
2022/01/15 04:47:55;;;;;;;;;16.00;15.00;;;;;6.86;51.82;99704.34;6079474;28;97985;-67
2022/01/15 04:50:58;;;;;;;;;15.00;14.60;;;;;6.72;51.97;99700.59;6084208;28;96959;-67
2022/01/15 04:54:04;;;;;;;;;16.40;15.40;;;;;6.74;52.00;99703.13;6103582;28;96853;-65
2022/01/15 04:57:07;;;;;;;;;15.00;13.40;;;;;6.57;52.20;99705.03;6090506;28;97568;-67
2022/01/15 05:00:13;;;;;;;;;15.50;14.00;;;;;6.53;52.31;99701.06;6090436;28;96485;-66
2022/01/15 05:03:17;;;;;;;;;16.80;15.00;;;;;6.51;52.21;99700.38;6076238;28;97276;-66
2022/01/15 05:06:20;;;;;;;;;17.25;15.25;;;;;6.45;52.10;99706.47;6091499;28;96608;-67
2022/01/15 05:09:25;;;;;;;;;19.00;17.00;;;;;6.45;52.03;99709.94;6076371;28;98447;-66
2022/01/15 05:12:31;;;;;;;;;15.60;13.60;;;;;6.50;52.06;99710.25;6086188;28;98352;-66
2022/01/15 05:15:35;;;;;;;;;14.00;12.00;;;;;6.47;52.10;99707.94;6086439;28;97137;-66
2022/01/15 05:18:38;;;;;;;;;16.80;16.00;;;;;6.59;51.85;99710.25;6084653;28;96546;-66
2022/01/15 05:21:41;;;;;;;;;15.00;13.25;;;;;6.53;51.96;99709.94;6087480;28;96518;-66
2022/01/15 05:24:46;;;;;;;;;19.00;16.60;;;;;6.43;52.49;99721.88;6100333;28;96868;-66
2022/01/15 05:27:51;;;;;;;;;19.00;17.00;;;;;6.38;52.58;99729.59;6085037;28;96557;-67
2022/01/15 05:30:54;;;;;;;;;19.25;17.00;;;;;6.47;52.43;99724.00;6086941;28;96632;-67
2022/01/15 05:33:58;;;;;;;;;17.25;15.75;;;;;6.48;52.39;99703.41;6083804;28;98418;-67
2022/01/15 05:37:01;;;;;;;;;23.00;21.00;;;;;6.43;52.63;99722.69;6088687;28;98336;-66
2022/01/15 05:40:08;;;;;;;;;24.40;21.40;;;;;6.27;52.76;99720.09;6091175;28;96660;-66
2022/01/15 05:43:12;;;;;;;;;22.20;20.00;;;;;6.27;52.71;99709.38;6086896;28;97477;-67
2022/01/15 05:46:15;;;;;;;;;26.00;25.00;;;;;6.19;52.70;99719.28;6091645;28;97143;-66
2022/01/15 05:49:19;;;;;;;;;24.50;22.00;;;;;6.17;52.76;99732.00;6098061;28;96552;-66
2022/01/15 05:52:22;;;;;;;;;25.00;24.00;;;;;6.12;52.65;99726.34;6084538;28;97102;-67
2022/01/15 05:55:27;;;;;;;;;28.00;24.00;;;;;6.18;52.39;99741.72;6071924;28;99418;-67
2022/01/15 05:58:30;;;;;;;;;25.50;22.00;;;;;6.15;52.31;99740.22;6090002;28;97534;-67
2022/01/15 06:01:33;;;;;;;;;29.40;25.40;;;;;6.19;52.05;99744.22;6088774;28;97614;-66
2022/01/15 06:04:37;;;;;;;;;29.00;24.40;;;;;6.13;52.12;99739.56;6088708;28;96706;-67
2022/01/15 06:07:41;;;;;;;;;26.00;22.75;;;;;6.06;52.22;99735.88;6089164;28;97385;-67
2022/01/15 06:10:48;;;;;;;;;29.00;24.60;;;;;6.11;52.15;99744.25;6081554;28;97760;-65
2022/01/15 06:13:51;;;;;;;;;23.80;22.20;;;;;6.17;51.73;99750.75;6078017;28;97161;-68
2022/01/15 06:16:55;;;;;;;;;24.00;22.60;;;;;6.16;51.89;99746.44;6089750;28;96686;-68
2022/01/15 06:19:58;;;;;;;;;28.00;23.00;;;;;6.11;52.09;99736.19;6087936;28;96669;-68
2022/01/15 06:23:01;;;;;;;;;23.80;22.40;;;;;6.11;52.07;99736.19;6085577;28;99633;-68
2022/01/15 06:26:06;;;;;;;;;24.00;22.20;;;;;6.11;51.96;99744.25;6089069;28;96633;-67
2022/01/15 06:29:09;;;;;;;;;27.00;24.00;;;;;6.18;52.17;99749.75;6077074;28;96826;-67
2022/01/15 06:32:13;;;;;;;;;23.00;22.00;;;;;6.21;51.85;99746.72;6089315;28;97200;-68
2022/01/15 06:35:17;;;;;;;;;28.00;22.00;;;;;6.36;51.65;99755.69;6088274;28;97481;-67
2022/01/15 06:38:20;;;;;;;;;25.80;22.80;;;;;6.26;51.51;99731.81;6087660;28;97474;-67
2022/01/15 06:41:25;;;;;;;;;26.25;25.00;;;;;6.51;51.20;99760.16;6096790;28;96873;-67
2022/01/15 06:44:29;;;;;;;;;23.60;22.60;;;;;6.48;51.30;99759.69;6088828;28;97664;-67
2022/01/15 06:47:32;;;;;;;;;25.60;21.00;;;;;6.55;51.12;99766.00;6087818;28;97877;-67
2022/01/15 06:50:37;;;;;;;;;22.25;21.25;;;;;6.51;51.06;99765.50;6089717;28;97922;-67
2022/01/15 06:53:41;;;;;;;;;25.40;21.00;;;;;6.65;50.70;99777.34;6089303;28;97326;-67
2022/01/15 06:56:46;;;;;;;;;24.00;22.00;;;;;6.70;50.54;99766.09;6088058;28;97066;-68
2022/01/15 06:59:49;;;;;;;;;23.00;22.00;;;;;6.80;50.45;99774.75;6088829;28;98132;-67
2022/01/15 07:02:52;;;;;;;;;26.00;23.40;;;;;6.70;50.27;99763.41;6091487;28;97456;-67
2022/01/15 07:05:59;;;;;;;;;22.50;19.50;;;;;6.95;50.16;99755.06;6089832;28;97466;-67
2022/01/15 07:09:03;;;;;;;;;23.75;21.00;;;;;7.04;49.89;99769.25;6091186;28;96734;-67
2022/01/15 07:12:09;;;;;;;;;25.40;22.00;;;;;7.47;48.99;99777.66;6093605;28;97936;-67
2022/01/15 07:15:12;;;;;;;;;23.00;22.00;;;;;8.06;47.41;99774.06;6089915;28;96526;-67
2022/01/15 07:18:16;;;;;;;;;25.80;24.40;;;;;8.38;47.24;99767.53;6088658;28;97363;-67
2022/01/15 07:21:20;;;;;;;;;27.00;21.20;;;;;8.47;46.66;99769.09;6089202;28;97842;-67
2022/01/15 07:24:23;;;;;;;;;27.00;24.00;;;;;8.66;46.09;99784.66;6088620;28;96842;-68
2022/01/15 07:27:28;;;;;;;;;22.00;20.00;;;;;9.07;45.21;99786.78;6088360;28;97887;-67
2022/01/15 07:30:35;;;;;;;;;25.00;21.00;;;;;10.12;43.16;99794.97;6089841;28;97474;-67
2022/01/15 07:33:38;;;;;;;;;23.20;19.20;;;;;11.09;40.37;99799.25;6087378;28;96753;-67
2022/01/15 07:36:42;;;;;;;;;23.20;20.20;;;;;12.17;38.58;99791.94;6092163;28;97039;-67
2022/01/15 07:39:46;;;;;;;;;23.25;21.50;;;;;12.70;37.47;99808.88;6088054;28;97570;-67
2022/01/15 07:42:50;;;;;;;;;24.00;21.00;;;;;13.56;36.33;99802.00;6086769;28;96762;-67
2022/01/15 07:45:54;;;;;;;;;25.00;20.00;;;;;14.07;34.55;99798.28;6087467;28;97621;-68
2022/01/15 07:48:57;;;;;;;;;20.20;19.00;;;;;14.82;33.39;99801.72;6087985;28;97485;-67
2022/01/15 07:52:01;;;;;;;;;21.75;20.00;;;;;14.80;33.33;99817.41;6090071;28;96952;-67
2022/01/15 07:55:05;;;;;;;;;24.40;22.00;;;;;14.63;33.72;99819.88;6082942;28;98366;-69
2022/01/15 07:58:29;;;;;;;;;23.00;21.00;;;;;14.66;33.77;99822.16;6081998;28;98427;-68
2022/01/15 08:01:33;;;;;;;;;24.00;21.00;;;;;14.74;33.24;99817.25;6071065;28;98645;-68
2022/01/15 08:04:36;;;;;;;;;25.40;19.00;;;;;15.05;32.32;99805.38;6087632;28;97345;-68
2022/01/15 08:07:41;;;;;;;;;19.80;18.20;;;;;15.88;31.58;99812.81;6089351;28;97466;-70
2022/01/15 08:10:45;;;;;;;;;22.00;19.00;;;;;15.69;30.91;99805.78;6088156;28;97014;-67
2022/01/15 08:13:50;;;;;;;;;23.75;21.75;;;;;15.53;31.70;99812.72;6085870;28;98489;-68
2022/01/15 08:16:53;;;;;;;;;21.00;20.00;;;;;15.11;32.53;99806.34;6086774;28;96624;-66
2022/01/15 08:19:57;;;;;;;;;20.75;17.75;;;;;14.53;32.85;99804.13;6089495;28;97413;-67
2022/01/15 08:23:00;;;;;;;;;19.00;16.00;;;;;14.88;32.77;99808.94;6087102;28;99153;-68
2022/01/15 08:26:03;;;;;;;;;19.20;15.60;;;;;14.88;32.31;99798.09;6087332;28;97448;-69
2022/01/15 08:29:09;;;;;;;;;19.00;17.00;;;;;15.53;31.62;99810.00;6088805;28;97490;-68
2022/01/15 08:32:12;;;;;;;;;16.00;16.00;;;;;16.12;30.65;99811.78;6087840;28;96802;-68
2022/01/15 08:35:16;;;;;;;;;13.25;13.00;;;;;15.81;30.99;99804.75;6088369;28;97424;-68
2022/01/15 08:38:19;;;;;;;;;15.25;12.75;;;;;16.18;30.42;99819.00;6086237;28;97498;-70
2022/01/15 08:41:22;;;;;;;;;20.50;18.00;;;;;16.70;29.61;99813.69;6081812;28;98998;-69
2022/01/15 08:44:27;;;;;;;;;16.00;15.00;;;;;17.21;28.91;99810.94;6089070;28;97965;-70
2022/01/15 08:47:30;;;;;;;;;17.00;15.00;;;;;17.82;27.99;99805.84;6104110;28;97490;-69
2022/01/15 08:50:34;;;;;;;;;16.60;16.00;;;;;18.33;27.06;99812.94;6105298;28;97451;-68
2022/01/15 08:53:38;;;;;;;;;19.80;17.80;;;;;19.23;25.53;99805.22;6089003;28;99634;-69
2022/01/15 08:56:41;;;;;;;;;15.80;14.00;;;;;19.74;25.04;99809.31;6074953;28;100032;-69
2022/01/15 08:59:46;;;;;;;;;17.00;13.00;;;;;19.59;24.76;99794.69;6089397;28;97467;-68
2022/01/15 09:02:49;;;;;;;;;17.60;16.00;;;;;19.72;25.05;99830.66;6090799;28;97283;-70
2022/01/15 09:05:53;;;;;;;;;17.00;16.00;;;;;19.79;24.78;99817.56;6076092;28;97743;-68
2022/01/15 09:08:56;;;;;;;;;19.50;16.50;;;;;19.77;24.82;99814.28;6091575;28;96541;-70
2022/01/15 09:12:00;;;;;;;;;16.40;15.00;;;;;19.50;24.90;99816.19;6091893;28;97112;-69
2022/01/15 09:15:06;;;;;;;;;19.20;15.80;;;;;19.96;24.43;99805.69;6093750;28;96958;-69
2022/01/15 09:18:09;;;;;;;;;17.00;13.25;;;;;20.23;24.01;99812.75;6096723;28;96824;-67
2022/01/15 09:21:12;;;;;;;;;15.00;13.00;;;;;20.69;23.22;99813.94;6095991;28;99304;-68
2022/01/15 09:24:16;;;;;;;;;15.00;14.00;;;;;21.17;22.62;99814.72;6070212;28;97510;-70
2022/01/15 09:30:43;;;;;;;;;16.00;14.00;;;;;21.61;22.17;99815.97;6091777;28;97096;-70
2022/01/15 09:33:46;;;;;;;;;15.20;14.00;;;;;22.12;21.94;99813.31;6093883;28;96882;-70
2022/01/15 09:36:49;;;;;;;;;16.60;13.60;;;;;22.46;21.66;99808.91;6095378;28;97720;-68
2022/01/15 09:39:52;;;;;;;;;18.40;16.00;;;;;22.70;21.13;99803.66;6093275;28;97556;-69
2022/01/15 09:42:57;;;;;;;;;14.40;14.00;;;;;22.89;20.83;99795.63;6086243;28;97434;-68
2022/01/15 09:46:02;;;;;;;;;14.75;13.00;;;;;22.93;20.51;99791.19;6078486;28;97552;-68
2022/01/15 09:49:06;;;;;;;;;15.20;14.20;;;;;22.77;20.48;99804.16;6094685;28;97017;-69
2022/01/15 09:52:10;;;;;;;;;15.00;13.75;;;;;22.83;20.41;99794.81;6090618;28;96896;-68
2022/01/15 09:55:14;;;;;;;;;14.20;13.00;;;;;22.89;20.75;99792.88;6091565;28;96798;-70
2022/01/15 09:58:17;;;;;;;;;17.40;15.40;;;;;23.03;20.23;99788.41;6092320;28;96611;-68
2022/01/15 10:01:24;;;;;;;;;20.50;15.25;;;;;22.96;20.08;99793.41;6090937;28;98133;-67
2022/01/15 10:04:31;;;;;;;;;15.00;14.00;;;;;22.74;20.11;99785.50;6091664;28;97349;-68
2022/01/15 10:07:35;;;;;;;;;17.00;15.00;;;;;22.67;20.06;99784.94;6091093;28;97453;-68
2022/01/15 10:10:40;;;;;;;;;19.00;16.40;;;;;22.83;20.48;99786.56;6073971;28;97953;-69
2022/01/15 10:13:44;;;;;;;;;18.40;15.40;;;;;22.83;20.57;99782.97;6093901;28;97557;-68
2022/01/15 10:16:49;;;;;;;;;16.25;14.25;;;;;22.83;20.32;99764.56;6085395;28;97192;-67
2022/01/15 10:19:53;;;;;;;;;19.00;16.25;;;;;22.82;20.53;99795.09;6089250;28;97305;-69
2022/01/15 10:22:58;;;;;;;;;17.00;15.40;;;;;23.10;20.05;99799.13;6090027;28;96894;-69
2022/01/15 10:26:12;;;;;;;;;17.80;15.00;;;;;23.30;19.48;99804.53;6087197;28;98427;-69
2022/01/15 10:29:15;;;;;;;;;19.60;17.00;;;;;23.57;19.56;99796.69;6091872;28;96480;-67
2022/01/15 10:32:20;;;;;;;;;21.00;17.00;;;;;23.36;20.25;99791.56;6090105;28;97091;-68
2022/01/15 10:35:26;;;;;;;;;21.40;18.40;;;;;23.54;19.48;99805.53;6091344;28;96859;-69
2022/01/15 10:38:35;;;;;;;;;19.00;16.60;;;;;23.38;19.52;99797.59;6090901;28;97148;-69
2022/01/15 10:41:38;;;;;;;;;18.80;17.20;;;;;23.56;19.90;99800.53;6090973;28;98934;-66
2022/01/15 10:44:42;;;;;;;;;20.50;18.50;;;;;23.57;19.88;99796.69;6091396;28;97502;-67
2022/01/15 10:47:50;;;;;;;;;21.00;19.50;;;;;23.41;20.22;99808.06;6106503;28;97574;-67
2022/01/15 10:50:58;;;;;;;;;20.00;18.60;;;;;23.39;20.00;99797.31;6078569;28;97009;-67
2022/01/15 10:54:06;;;;;;;;;24.00;20.60;;;;;23.49;20.04;99797.28;6089391;28;97528;-68
2022/01/15 10:57:11;;;;;;;;;23.80;20.80;;;;;23.26;19.94;99807.00;6083393;28;99555;-67
2022/01/15 11:00:20;;;;;;;;;21.60;19.60;;;;;23.13;20.23;99810.38;6075604;28;97172;-67
2022/01/15 11:03:36;;;;;;;;;20.00;20.00;;;;;23.10;20.06;99801.88;6088207;28;97462;-70
2022/01/15 11:06:40;;;;;;;;;23.40;20.40;;;;;23.03;19.92;99804.09;6090807;28;98099;-67
2022/01/15 11:09:45;;;;;;;;;21.80;19.00;;;;;23.22;20.29;99794.09;6087074;28;96990;-69
2022/01/15 11:12:48;;;;;;;;;18.00;16.00;;;;;23.02;19.60;99800.50;6090349;28;97137;-67
2022/01/15 11:15:56;;;;;;;;;21.50;18.75;;;;;23.11;19.81;99807.09;6086863;28;97456;-67
2022/01/15 11:19:03;;;;;;;;;20.00;18.00;;;;;22.81;19.74;99798.94;6088672;28;96697;-67
2022/01/15 11:22:06;;;;;;;;;19.75;16.00;;;;;23.13;20.23;99801.28;6067237;28;97198;-68
2022/01/15 11:25:12;;;;;;;;;22.00;18.40;;;;;23.19;19.83;99790.00;6092730;28;97020;-69
2022/01/15 11:28:17;;;;;;;;;20.25;19.25;;;;;23.54;19.89;99782.69;6091851;28;96610;-68
2022/01/15 11:31:23;;;;;;;;;20.00;18.00;;;;;23.57;19.27;99788.44;6089600;28;98518;-67
2022/01/15 11:34:32;;;;;;;;;17.00;16.00;;;;;23.67;19.31;99780.09;6089002;28;98346;-69
2022/01/15 11:37:46;;;;;;;;;17.60;15.00;;;;;23.64;19.09;99782.63;6101563;28;98399;-69
2022/01/15 11:40:53;;;;;;;;;18.00;17.40;;;;;23.39;19.29;99779.97;6102849;28;97489;-66
2022/01/15 11:43:57;;;;;;;;;17.00;16.00;;;;;23.06;19.74;99781.53;6088022;28;96954;-69
2022/01/15 11:47:12;;;;;;;;;23.00;19.00;;;;;22.35;20.31;99774.28;6081926;28;97543;-68
2022/01/15 11:50:26;;;;;;;;;22.40;18.00;;;;;21.97;20.62;99737.25;6067488;28;97416;-68
2022/01/15 11:53:45;;;;;;;;;20.60;18.00;;;;;21.86;20.50;99768.50;6075831;28;97204;-67
2022/01/15 11:56:49;;;;;;;;;20.50;19.00;;;;;21.85;20.96;99772.34;6089751;28;97171;-69
2022/01/15 11:59:53;;;;;;;;;21.00;18.00;;;;;21.68;20.94;99765.50;6105476;28;97549;-69
2022/01/15 12:03:05;;;;;;;;;20.00;18.00;;;;;21.57;21.00;99773.69;6088030;28;97163;-69
2022/01/15 12:06:10;;;;;;;;;13.75;13.00;;;;;21.24;20.52;99776.94;6087493;28;97531;-67
2022/01/15 12:09:34;;;;;;;;;14.25;13.25;;;;;20.86;20.52;99771.81;6085779;28;96986;-67
2022/01/15 12:12:50;;;;;;;;;17.40;15.00;;;;;20.70;21.08;99762.69;6084777;28;100191;-67
2022/01/15 12:16:38;;;;;;;;;13.00;12.00;;;;;20.62;21.02;99769.50;6087936;28;97402;-69
2022/01/15 12:19:43;;;;;;;;;17.00;15.00;;;;;20.44;21.24;99755.41;6102309;28;100194;-71
2022/01/15 12:22:48;;;;;;;;;16.50;14.00;;;;;20.25;21.42;99755.81;6084901;28;96671;-70
2022/01/15 12:25:53;;;;;;;;;16.00;15.00;;;;;20.04;21.88;99759.50;6087280;28;98237;-70
2022/01/15 12:28:56;;;;;;;;;15.00;14.00;;;;;19.84;22.22;99748.41;6088582;28;96543;-68
2022/01/15 12:32:00;;;;;;;;;18.00;15.00;;;;;19.98;21.91;99757.00;6090081;28;97757;-67
2022/01/15 12:35:04;;;;;;;;;17.00;16.00;;;;;19.55;22.09;99709.56;6078865;28;96698;-67
2022/01/15 12:38:11;;;;;;;;;15.40;14.40;;;;;19.92;22.10;99741.63;6081580;28;96472;-69
2022/01/15 12:41:18;;;;;;;;;16.00;15.20;;;;;19.82;22.12;99748.66;6086720;28;97031;-66
2022/01/15 12:44:22;;;;;;;;;17.60;17.00;;;;;19.63;22.18;99763.81;6088705;28;97697;-67
2022/01/15 12:47:25;;;;;;;;;15.20;13.20;;;;;19.17;22.72;99758.91;6088588;28;96582;-68
2022/01/15 12:50:36;;;;;;;;;17.00;15.00;;;;;19.03;22.77;99745.66;6089510;28;98423;-67
2022/01/15 12:53:46;;;;;;;;;16.00;16.00;;;;;18.83;22.79;99733.66;6087549;28;97589;-70
2022/01/15 12:56:50;;;;;;;;;20.20;19.20;;;;;18.62;23.48;99743.50;6089558;28;97592;-69
2022/01/15 13:00:00;;;;;;;;;22.00;20.00;;;;;18.37;23.79;99749.44;6091092;28;97054;-69
2022/01/15 13:03:07;;;;;;;;;18.00;15.40;;;;;18.12;24.17;99729.94;6088010;28;97456;-70
2022/01/15 13:06:10;;;;;;;;;22.50;18.25;;;;;18.13;24.52;99737.88;6091100;28;97468;-67
2022/01/15 13:09:15;;;;;;;;;22.00;21.00;;;;;17.95;24.84;99740.03;6104062;28;97231;-69
2022/01/15 13:12:18;;;;;;;;;22.60;20.60;;;;;17.57;25.24;99738.03;6078672;28;97948;-67
2022/01/15 13:15:21;;;;;;;;;23.80;21.40;;;;;17.19;25.86;99735.97;6075733;28;96844;-69
2022/01/15 13:18:27;;;;;;;;;20.75;19.00;;;;;16.86;26.32;99739.41;6090407;28;97463;-69
2022/01/15 13:21:33;;;;;;;;;23.00;20.00;;;;;16.72;26.30;99752.47;6088549;28;96868;-68
2022/01/15 13:24:38;;;;;;;;;22.40;20.00;;;;;16.48;26.49;99748.09;6088813;28;98268;-69
2022/01/15 13:27:43;;;;;;;;;19.20;17.00;;;;;16.23;26.51;99732.03;6088138;28;97548;-67
2022/01/15 13:30:48;;;;;;;;;18.20;17.20;;;;;15.94;26.64;99722.13;6074300;28;97808;-69
2022/01/15 13:33:51;;;;;;;;;18.25;14.75;;;;;16.06;26.91;99755.59;6093022;28;97470;-67
2022/01/15 13:36:54;;;;;;;;;17.50;15.50;;;;;15.92;26.95;99749.56;6105111;28;96638;-69
2022/01/15 13:39:59;;;;;;;;;19.80;17.00;;;;;15.68;27.33;99758.75;6089464;28;96509;-69
2022/01/15 13:43:03;;;;;;;;;22.00;19.00;;;;;15.56;27.40;99739.69;6088847;28;98606;-68
2022/01/15 13:46:09;;;;;;;;;22.60;19.00;;;;;15.50;27.70;99759.59;6089397;28;97324;-69
2022/01/15 13:49:14;;;;;;;;;18.00;16.00;;;;;15.36;28.18;99760.03;6103337;28;97026;-67
2022/01/15 13:55:50;;;;;;;;;17.60;17.40;;;;;14.89;28.54;99762.56;6104351;28;96507;-69
2022/01/15 13:58:57;;;;;;;;;18.00;16.00;;;;;14.57;29.25;99766.50;6083432;28;97122;-67
2022/01/15 14:02:02;;;;;;;;;18.20;15.20;;;;;14.44;29.34;99770.19;6093444;28;97958;-70
2022/01/15 14:05:13;;;;;;;;;15.20;15.20;;;;;14.28;29.56;99776.16;6088850;28;96687;-68
2022/01/15 14:08:16;;;;;;;;;16.60;14.80;;;;;14.13;29.76;99770.25;6094780;28;96561;-68
2022/01/15 14:11:21;;;;;;;;;17.00;14.00;;;;;13.89;29.93;99761.09;6084352;28;98467;-69
2022/01/15 14:14:24;;;;;;;;;15.25;14.00;;;;;13.68;30.39;99766.94;6089016;28;96742;-67
2022/01/15 14:17:28;;;;;;;;;14.00;14.00;;;;;13.59;30.63;99765.50;6076513;28;97098;-69
2022/01/15 14:23:56;;;;;;;;;18.00;15.50;;;;;13.13;31.71;99761.25;6072566;28;97174;-67
2022/01/15 14:27:01;;;;;;;;;18.40;15.00;;;;;12.97;32.00;99759.00;6069132;28;96612;-68
2022/01/15 14:30:06;;;;;;;;;18.00;17.50;;;;;12.48;32.94;99756.91;6059007;28;97742;-67
2022/01/15 14:33:11;;;;;;;;;19.40;18.00;;;;;12.18;32.79;99753.84;6085446;28;97658;-69
2022/01/15 14:36:15;;;;;;;;;24.00;20.00;;;;;11.93;34.06;99769.91;6067928;28;96642;-66